Rose Hill, Iowa
Current Conditions -  °F | °C
As of 5:15 AM on Saturday 20 Dec 2014 (Local Time) from KOOA Reporting Station
Haze Haze  
Wind Chill: 24°   Ceiling: 400
Heat Index: 30°   Visibility: 3mi
Dew Point: 29°   Wind: 6mph
Humidity: 96%   Direction: 140°SE
Pressure: 30.2"   Gusts: NA
Location:  41.32°N, 92.46°W
Report Text: KOOA 201115Z AUTO 14005KT 3SM BR OVC004 M01/M02 A3020 RMK AO2 T10111016
Loading
Personal Weather Stations






























Interactive Weather Map New forecast layout! Learn more

10-Day Weather Forecast

Advertisements
Track Severe Weather on mobile